Time;durP1;ratioP1;P1;durP2;ratioP2;P2;SDS_P1;SDS_P2;PMS_P1;PMS_P2;Temp;Humidity;BMP_temperature;BMP_pressure;BME280_temperature;BME280_humidity;BME280_pressure;Samples;Min_cycle;Max_cycle;Signal;HPM_P1;HPM_P2
2023/08/08 00:00:30;;;;;;;7.40;2.50;;;12.10;99.90;;;;;;4174625;28;20762;-75
2023/08/08 00:02:38;;;;;;;5.63;2.00;;;12.10;99.90;;;;;;4174791;28;20240;-76
2023/08/08 00:04:39;;;;;;;4.83;2.00;;;12.00;99.90;;;;;;4172221;28;20230;-75
2023/08/08 00:06:41;;;;;;;5.87;2.00;;;12.00;99.90;;;;;;4181087;28;20230;-75
2023/08/08 00:08:42;;;;;;;7.33;2.30;;;12.00;99.90;;;;;;4181130;28;20368;-76
2023/08/08 00:10:46;;;;;;;5.13;2.37;;;12.00;99.90;;;;;;4176806;28;20218;-76
2023/08/08 00:12:48;;;;;;;4.87;2.37;;;12.00;99.90;;;;;;4177130;28;20233;-75
2023/08/08 00:14:50;;;;;;;7.00;2.23;;;12.00;99.90;;;;;;4181460;28;20301;-74
2023/08/08 00:16:53;;;;;;;4.97;2.20;;;11.90;99.90;;;;;;4188062;28;20238;-75
2023/08/08 00:18:55;;;;;;;7.77;2.40;;;12.00;99.90;;;;;;4173091;28;20210;-75
2023/08/08 00:20:57;;;;;;;6.03;2.50;;;11.90;99.90;;;;;;4179692;28;20214;-77
2023/08/08 00:22:58;;;;;;;8.57;2.53;;;11.90;99.90;;;;;;4179147;28;20301;-76
2023/08/08 00:25:00;;;;;;;7.13;2.10;;;12.00;99.90;;;;;;4177522;28;20209;-75
2023/08/08 00:27:01;;;;;;;3.77;2.40;;;11.90;99.90;;;;;;4180073;28;20258;-76
2023/08/08 00:29:03;;;;;;;6.47;2.20;;;11.90;99.90;;;;;;4177113;28;20206;-76
2023/08/08 00:31:05;;;;;;;7.27;2.63;;;11.90;99.90;;;;;;4180039;28;20213;-76
2023/08/08 00:33:09;;;;;;;6.70;2.30;;;11.90;99.90;;;;;;4177641;28;20225;-76
2023/08/08 00:35:11;;;;;;;5.63;2.33;;;11.80;99.90;;;;;;4172661;28;20237;-75
2023/08/08 00:37:13;;;;;;;6.20;2.47;;;11.80;99.90;;;;;;4173996;28;20328;-75
2023/08/08 00:39:17;;;;;;;6.13;2.50;;;11.80;99.90;;;;;;4179307;28;20723;-75
2023/08/08 00:41:18;;;;;;;3.33;1.80;;;11.70;99.90;;;;;;4179683;28;20218;-75
2023/08/08 00:43:23;;;;;;;3.50;1.97;;;11.80;99.90;;;;;;4186452;28;20300;-76
2023/08/08 00:45:24;;;;;;;4.60;2.30;;;11.70;99.90;;;;;;4183758;28;20604;-75
2023/08/08 00:47:27;;;;;;;9.00;2.20;;;11.70;99.90;;;;;;4174743;28;20328;-75
2023/08/08 00:49:31;;;;;;;7.83;2.40;;;11.70;99.90;;;;;;4180043;28;20984;-75
2023/08/08 00:51:33;;;;;;;7.17;2.27;;;11.70;99.90;;;;;;4175319;28;20304;-75
2023/08/08 00:53:38;;;;;;;7.17;2.30;;;11.70;99.90;;;;;;4178830;28;20243;-75
2023/08/08 00:55:39;;;;;;;7.70;2.40;;;11.70;99.90;;;;;;4176947;28;20719;-76
2023/08/08 00:57:41;;;;;;;4.57;2.23;;;11.70;99.90;;;;;;4176921;28;20224;-75
2023/08/08 00:59:43;;;;;;;5.87;2.30;;;11.60;99.90;;;;;;4176200;28;20688;-75
2023/08/08 01:01:45;;;;;;;9.47;2.10;;;11.60;99.90;;;;;;4182329;28;20216;-75
2023/08/08 01:03:47;;;;;;;5.13;2.67;;;11.60;99.90;;;;;;4182106;28;20633;-75
2023/08/08 01:05:55;;;;;;;6.53;2.20;;;11.60;99.90;;;;;;4184304;28;20747;-75
2023/08/08 01:08:04;;;;;;;6.17;2.20;;;11.60;99.90;;;;;;4184148;28;20213;-75
2023/08/08 01:10:09;;;;;;;6.50;2.03;;;11.60;99.90;;;;;;4173326;28;20304;-75
2023/08/08 01:12:12;;;;;;;4.53;2.33;;;11.50;99.90;;;;;;4180898;28;20225;-75
2023/08/08 01:14:14;;;;;;;6.63;2.30;;;11.50;99.90;;;;;;4177460;28;20209;-74
2023/08/08 01:16:18;;;;;;;8.13;2.57;;;11.50;99.90;;;;;;4182213;28;20400;-76
2023/08/08 01:18:20;;;;;;;3.70;2.03;;;11.40;99.90;;;;;;4170772;28;20847;-75
2023/08/08 01:20:22;;;;;;;7.33;2.37;;;11.50;99.90;;;;;;4177494;28;20214;-75
2023/08/08 01:22:32;;;;;;;5.27;2.20;;;11.40;99.90;;;;;;4168171;28;20203;-74
2023/08/08 01:24:37;;;;;;;6.50;1.97;;;11.40;99.90;;;;;;4181740;28;20275;-75
2023/08/08 01:26:40;;;;;;;7.57;2.10;;;11.40;99.90;;;;;;4177164;28;20233;-75
2023/08/08 01:28:44;;;;;;;8.07;2.67;;;11.40;99.90;;;;;;4171389;28;20207;-74
2023/08/08 01:30:46;;;;;;;5.53;2.57;;;11.40;99.90;;;;;;4174205;28;20228;-75
2023/08/08 01:32:48;;;;;;;4.03;2.20;;;11.40;99.90;;;;;;4180294;28;20217;-75
2023/08/08 01:34:50;;;;;;;4.43;2.30;;;11.40;99.90;;;;;;4180855;28;20209;-75
2023/08/08 01:36:58;;;;;;;6.63;2.53;;;11.30;99.90;;;;;;4168916;28;20246;-74
2023/08/08 01:39:04;;;;;;;3.43;1.93;;;11.40;99.90;;;;;;4183948;28;20216;-75
2023/08/08 01:41:08;;;;;;;3.73;1.80;;;11.30;99.90;;;;;;4177325;28;20217;-75
2023/08/08 01:43:10;;;;;;;5.53;2.30;;;11.30;99.90;;;;;;4171555;28;20586;-75
2023/08/08 01:45:13;;;;;;;5.23;2.40;;;11.30;99.90;;;;;;4177194;28;20305;-75
2023/08/08 01:47:14;;;;;;;8.17;2.30;;;11.30;99.90;;;;;;4180273;28;20325;-75
2023/08/08 01:49:15;;;;;;;5.40;2.17;;;11.30;99.90;;;;;;4183787;28;20201;-76
2023/08/08 01:51:18;;;;;;;3.67;2.20;;;11.20;99.90;;;;;;4178980;28;20213;-75
2023/08/08 01:53:20;;;;;;;6.87;2.30;;;11.20;99.90;;;;;;4178195;28;20249;-76
2023/08/08 01:55:22;;;;;;;5.57;2.23;;;11.30;99.90;;;;;;4178892;28;20306;-75
2023/08/08 01:57:25;;;;;;;5.23;2.77;;;11.20;99.90;;;;;;4169882;28;20238;-75
2023/08/08 01:59:27;;;;;;;4.90;2.13;;;11.30;99.90;;;;;;4181962;28;20237;-75
2023/08/08 02:01:31;;;;;;;5.97;2.33;;;11.20;99.90;;;;;;4179461;28;20563;-74
2023/08/08 02:03:36;;;;;;;4.50;2.30;;;11.20;99.90;;;;;;4182133;28;20225;-75
2023/08/08 02:05:37;;;;;;;6.23;2.10;;;11.20;99.90;;;;;;4172117;28;20312;-74
2023/08/08 02:07:38;;;;;;;6.27;2.17;;;11.30;99.90;;;;;;4173853;28;20248;-74
2023/08/08 02:09:40;;;;;;;4.57;2.23;;;11.20;99.90;;;;;;4172901;28;20302;-75
2023/08/08 02:11:42;;;;;;;3.90;1.87;;;11.20;99.90;;;;;;4183561;28;20211;-74
2023/08/08 02:13:45;;;;;;;5.17;2.20;;;11.20;99.90;;;;;;4182699;28;20305;-75
2023/08/08 02:15:47;;;;;;;4.13;1.90;;;11.30;99.90;;;;;;4178111;28;20213;-75
2023/08/08 02:17:51;;;;;;;3.83;2.23;;;11.30;99.90;;;;;;4180173;28;21200;-75
2023/08/08 02:19:53;;;;;;;4.30;1.90;;;11.30;99.90;;;;;;4185376;28;20206;-75
2023/08/08 02:21:55;;;;;;;3.70;2.10;;;11.30;99.90;;;;;;4177212;28;20280;-76
2023/08/08 02:23:56;;;;;;;6.20;2.07;;;11.30;99.90;;;;;;4177093;28;20233;-75
2023/08/08 02:25:58;;;;;;;7.00;2.07;;;11.20;99.90;;;;;;4172402;28;20230;-75
2023/08/08 02:28:00;;;;;;;6.23;2.20;;;11.30;99.90;;;;;;4170138;28;20242;-76
2023/08/08 02:30:04;;;;;;;5.40;2.03;;;11.30;99.90;;;;;;4178043;28;20307;-75
2023/08/08 02:32:06;;;;;;;5.33;2.20;;;11.20;99.90;;;;;;4176906;28;20252;-76
2023/08/08 02:34:08;;;;;;;3.40;1.80;;;11.30;99.90;;;;;;4175148;28;20697;-75
2023/08/08 02:36:10;;;;;;;4.30;1.93;;;11.20;99.90;;;;;;4179329;28;20270;-75
2023/08/08 02:38:12;;;;;;;5.07;2.13;;;11.20;99.90;;;;;;4177260;28;20214;-75
2023/08/08 02:40:14;;;;;;;6.03;1.90;;;11.20;99.90;;;;;;4178757;28;20232;-75
2023/08/08 02:42:16;;;;;;;4.97;2.07;;;11.20;99.90;;;;;;4177989;28;20668;-75
2023/08/08 02:44:20;;;;;;;5.43;2.10;;;11.20;99.90;;;;;;4176436;28;20296;-75
2023/08/08 02:46:23;;;;;;;4.43;2.20;;;11.20;99.90;;;;;;4172558;28;20671;-75
2023/08/08 02:48:25;;;;;;;4.23;2.20;;;11.20;99.90;;;;;;4166799;28;20227;-75
2023/08/08 02:50:28;;;;;;;4.73;2.20;;;11.20;99.90;;;;;;4173298;28;20699;-75
2023/08/08 02:52:30;;;;;;;5.30;2.20;;;11.20;99.90;;;;;;4177822;28;20498;-75
2023/08/08 02:54:32;;;;;;;2.93;1.83;;;11.20;99.90;;;;;;4179109;28;20214;-75
2023/08/08 02:56:38;;;;;;;3.23;2.07;;;11.20;99.90;;;;;;4172669;28;20261;-75
2023/08/08 02:58:39;;;;;;;4.57;2.30;;;11.20;99.90;;;;;;4179253;28;20205;-75
2023/08/08 03:00:41;;;;;;;5.63;2.33;;;11.20;99.90;;;;;;4177923;28;20210;-75
2023/08/08 03:02:44;;;;;;;7.67;2.10;;;11.20;99.90;;;;;;4184652;28;20296;-76
2023/08/08 03:04:46;;;;;;;9.23;2.10;;;11.20;99.90;;;;;;4179923;28;20305;-76
2023/08/08 03:06:51;;;;;;;6.73;2.20;;;11.20;99.90;;;;;;4178833;28;20265;-74
2023/08/08 03:08:53;;;;;;;4.03;2.13;;;11.20;99.90;;;;;;4175171;28;20222;-74
2023/08/08 03:10:55;;;;;;;4.83;1.93;;;11.20;99.90;;;;;;4178485;28;20294;-75
2023/08/08 03:12:57;;;;;;;4.07;2.23;;;11.20;99.90;;;;;;4179505;28;20313;-75
2023/08/08 03:14:58;;;;;;;4.80;2.23;;;11.20;99.90;;;;;;4171115;28;20241;-76
2023/08/08 03:16:59;;;;;;;8.00;2.03;;;11.20;99.90;;;;;;4173184;28;20237;-76
2023/08/08 03:19:03;;;;;;;3.37;1.80;;;11.30;99.90;;;;;;4178890;28;20218;-76
2023/08/08 03:21:05;;;;;;;5.13;1.83;;;11.20;99.90;;;;;;4182340;28;20201;-75
2023/08/08 03:23:07;;;;;;;5.43;2.03;;;11.20;99.90;;;;;;4182526;28;20589;-76
2023/08/08 03:25:08;;;;;;;2.53;1.73;;;11.20;99.90;;;;;;4178113;28;20620;-76
2023/08/08 03:27:10;;;;;;;4.93;2.07;;;11.20;99.90;;;;;;4178993;28;20221;-77
2023/08/08 03:29:12;;;;;;;5.13;2.00;;;11.20;99.90;;;;;;4174933;28;20221;-77
2023/08/08 03:31:16;;;;;;;5.47;2.07;;;11.20;99.90;;;;;;4177549;28;20209;-76
2023/08/08 03:33:18;;;;;;;3.77;1.97;;;11.30;99.90;;;;;;4180888;28;20213;-77
2023/08/08 03:35:21;;;;;;;4.60;2.17;;;11.30;99.90;;;;;;4174366;28;20298;-76
2023/08/08 03:37:26;;;;;;;6.13;2.53;;;11.20;99.90;;;;;;4177173;28;20238;-76
2023/08/08 03:39:30;;;;;;;6.83;2.07;;;11.20;99.90;;;;;;4177556;28;20327;-75
2023/08/08 03:41:32;;;;;;;4.47;2.10;;;11.20;99.90;;;;;;4175901;28;20244;-75
2023/08/08 03:43:34;;;;;;;3.40;2.00;;;11.20;99.90;;;;;;4181257;28;20702;-75
2023/08/08 03:45:36;;;;;;;7.03;2.30;;;11.30;99.90;;;;;;4182364;28;20768;-75
2023/08/08 03:47:38;;;;;;;4.97;2.30;;;11.30;99.90;;;;;;4183112;28;21167;-75
2023/08/08 03:49:43;;;;;;;5.73;2.20;;;11.30;99.90;;;;;;4177432;28;20240;-75
2023/08/08 03:51:48;;;;;;;2.83;1.83;;;11.30;99.90;;;;;;4170969;28;20211;-75
2023/08/08 03:53:50;;;;;;;5.83;2.10;;;11.30;99.90;;;;;;4179398;28;20205;-75
2023/08/08 03:55:52;;;;;;;4.93;1.87;;;11.30;99.90;;;;;;4178035;28;20201;-76
2023/08/08 03:57:54;;;;;;;6.10;2.20;;;11.30;99.90;;;;;;4182549;28;20233;-76
2023/08/08 03:59:58;;;;;;;4.87;2.17;;;11.30;99.90;;;;;;4176764;28;20307;-77
2023/08/08 04:02:00;;;;;;;4.10;2.43;;;11.30;99.90;;;;;;4179305;28;20305;-76
2023/08/08 04:04:02;;;;;;;5.03;1.93;;;11.30;99.90;;;;;;4173725;28;20305;-76
2023/08/08 04:06:04;;;;;;;3.60;2.00;;;11.30;99.90;;;;;;4176331;28;20237;-77
2023/08/08 04:08:08;;;;;;;2.33;1.90;;;11.30;99.90;;;;;;4177801;28;20217;-76
2023/08/08 04:10:10;;;;;;;4.03;2.10;;;11.30;99.90;;;;;;4188872;28;20210;-76
2023/08/08 04:12:12;;;;;;;3.27;2.07;;;11.30;99.90;;;;;;4175246;28;20215;-77
2023/08/08 04:14:14;;;;;;;4.57;2.20;;;11.40;99.90;;;;;;4179684;28;20317;-76
2023/08/08 04:16:16;;;;;;;5.10;2.50;;;11.40;99.90;;;;;;4176151;28;20233;-77
2023/08/08 04:18:18;;;;;;;5.00;2.27;;;11.50;99.90;;;;;;4176661;28;20242;-77
2023/08/08 04:20:20;;;;;;;4.93;2.40;;;11.50;99.90;;;;;;4177805;28;20306;-77
2023/08/08 04:22:22;;;;;;;3.60;2.13;;;11.50;99.90;;;;;;4176760;28;20279;-76
2023/08/08 04:24:26;;;;;;;4.27;2.13;;;11.60;99.90;;;;;;4178687;28;20289;-76
2023/08/08 04:26:28;;;;;;;4.20;1.93;;;11.60;99.90;;;;;;4171162;28;20326;-75
2023/08/08 04:28:29;;;;;;;4.10;1.93;;;11.70;99.90;;;;;;4179582;28;20228;-75
2023/08/08 04:30:33;;;;;;;3.37;1.90;;;11.70;99.90;;;;;;4173275;28;20297;-76
2023/08/08 04:32:34;;;;;;;5.90;2.47;;;11.80;99.90;;;;;;4170011;28;20218;-76
2023/08/08 04:34:39;;;;;;;5.43;2.10;;;11.80;99.90;;;;;;4181358;28;20233;-76
2023/08/08 04:36:41;;;;;;;4.77;1.90;;;11.90;99.90;;;;;;4175368;28;20778;-75
2023/08/08 04:38:43;;;;;;;3.27;2.00;;;11.90;99.90;;;;;;4178603;28;20233;-77
2023/08/08 04:40:47;;;;;;;7.33;2.13;;;11.90;99.90;;;;;;4172589;28;20304;-77
2023/08/08 04:42:49;;;;;;;4.13;2.20;;;11.90;99.90;;;;;;4171488;28;20238;-77
2023/08/08 04:44:52;;;;;;;4.93;1.90;;;12.00;99.90;;;;;;4175002;28;20218;-75
2023/08/08 04:46:54;;;;;;;3.33;1.90;;;12.10;99.90;;;;;;4176558;28;20230;-76
2023/08/08 04:48:56;;;;;;;3.33;1.83;;;12.00;99.90;;;;;;4179896;28;20234;-76
2023/08/08 04:50:57;;;;;;;2.50;1.80;;;12.10;99.90;;;;;;4176185;28;20205;-76
2023/08/08 04:52:59;;;;;;;4.57;2.00;;;12.20;99.90;;;;;;4179131;28;20314;-76
2023/08/08 04:55:01;;;;;;;6.10;1.90;;;12.20;99.90;;;;;;4173880;28;20308;-76
2023/08/08 04:57:10;;;;;;;3.33;2.10;;;12.20;99.90;;;;;;4171743;28;20237;-76
2023/08/08 04:59:17;;;;;;;3.40;1.93;;;12.20;99.90;;;;;;4175152;28;20293;-76
2023/08/08 05:01:21;;;;;;;6.37;1.97;;;12.20;99.90;;;;;;4175518;28;20234;-75
2023/08/08 05:03:23;;;;;;;7.53;2.10;;;12.30;99.90;;;;;;4182065;28;20640;-77
2023/08/08 05:05:27;;;;;;;4.70;1.80;;;12.30;99.90;;;;;;4176726;28;20214;-77
2023/08/08 05:07:29;;;;;;;13.50;2.40;;;12.30;99.90;;;;;;4178178;28;20757;-77
2023/08/08 05:09:31;;;;;;;5.93;2.20;;;12.30;99.90;;;;;;4178762;28;20294;-77
2023/08/08 05:11:33;;;;;;;3.87;2.00;;;12.30;99.90;;;;;;4179668;28;20210;-77
2023/08/08 05:13:36;;;;;;;7.40;2.10;;;12.40;99.90;;;;;;4179542;28;20206;-77
2023/08/08 05:15:38;;;;;;;4.37;1.90;;;12.40;99.90;;;;;;4177317;28;20500;-77
2023/08/08 05:17:45;;;;;;;8.47;2.53;;;12.40;99.90;;;;;;4174985;28;20239;-77
2023/08/08 05:19:59;;;;;;;6.50;1.70;;;12.50;99.90;;;;;;4175543;28;20246;-76
2023/08/08 05:22:01;;;;;;;7.00;2.27;;;12.50;99.90;;;;;;4174922;28;20221;-76
2023/08/08 05:24:03;;;;;;;5.60;1.77;;;12.50;99.90;;;;;;4176401;28;20304;-76
2023/08/08 05:26:04;;;;;;;6.67;2.70;;;12.50;99.90;;;;;;4178138;28;20203;-77
2023/08/08 05:28:06;;;;;;;2.40;1.70;;;12.50;99.90;;;;;;4178449;28;20225;-77
2023/08/08 05:30:10;;;;;;;2.73;1.70;;;12.50;99.90;;;;;;4180486;28;20216;-77
2023/08/08 05:32:12;;;;;;;3.97;1.70;;;12.50;99.90;;;;;;4176854;28;20299;-76
2023/08/08 05:34:14;;;;;;;3.20;1.70;;;12.50;99.90;;;;;;4174291;28;20209;-76
2023/08/08 05:36:16;;;;;;;5.80;2.00;;;12.60;99.90;;;;;;4174771;28;20966;-76
2023/08/08 05:38:18;;;;;;;5.67;2.60;;;12.60;99.90;;;;;;4180172;28;20232;-76
2023/08/08 05:40:20;;;;;;;7.73;2.83;;;12.70;99.90;;;;;;4176173;28;20216;-76
2023/08/08 05:42:22;;;;;;;7.00;2.87;;;12.60;99.90;;;;;;4177179;28;20308;-75
2023/08/08 05:44:22;;;;;;;5.60;2.17;;;12.70;99.90;;;;;;4175676;28;20223;-76
2023/08/08 05:46:26;;;;;;;3.40;1.80;;;12.70;99.90;;;;;;4174938;28;20218;-76
2023/08/08 05:48:27;;;;;;;3.17;2.00;;;12.70;99.90;;;;;;4183329;28;20205;-76
2023/08/08 05:50:29;;;;;;;4.23;2.37;;;12.80;99.90;;;;;;4178778;28;20230;-76
2023/08/08 05:52:31;;;;;;;3.50;1.70;;;12.80;99.90;;;;;;4174044;28;20230;-77
2023/08/08 05:54:32;;;;;;;4.57;1.53;;;12.80;99.90;;;;;;4178415;28;20210;-77
2023/08/08 05:56:38;;;;;;;5.97;1.97;;;12.80;99.90;;;;;;4175916;28;20232;-77
2023/08/08 05:58:39;;;;;;;3.17;1.73;;;12.80;99.90;;;;;;4175548;28;20347;-76
2023/08/08 06:00:42;;;;;;;12.93;1.97;;;12.90;99.90;;;;;;4179178;28;20642;-76
2023/08/08 06:02:46;;;;;;;5.63;1.43;;;12.90;99.90;;;;;;4175027;28;20229;-76
2023/08/08 06:04:50;;;;;;;4.43;1.57;;;12.90;99.90;;;;;;4182791;28;20217;-76
2023/08/08 06:06:52;;;;;;;3.70;1.57;;;12.90;99.90;;;;;;4179304;28;21075;-76
2023/08/08 06:08:54;;;;;;;2.57;1.53;;;13.00;99.90;;;;;;4175583;28;20300;-76
2023/08/08 06:10:56;;;;;;;3.07;1.40;;;13.00;99.90;;;;;;4179629;28;20696;-77
2023/08/08 06:12:58;;;;;;;4.57;1.57;;;13.10;99.90;;;;;;4181845;28;20207;-75
2023/08/08 06:14:59;;;;;;;6.10;2.03;;;13.20;99.90;;;;;;4179931;28;20600;-76
2023/08/08 06:17:01;;;;;;;3.77;1.50;;;13.20;99.90;;;;;;4181431;28;20254;-76
2023/08/08 06:19:04;;;;;;;2.60;1.53;;;13.30;99.90;;;;;;4175222;28;21052;-76
2023/08/08 06:21:05;;;;;;;6.60;1.73;;;13.30;99.90;;;;;;4176823;28;20243;-77
2023/08/08 06:23:08;;;;;;;1.90;1.30;;;13.40;99.90;;;;;;4176586;28;20242;-76
2023/08/08 06:25:10;;;;;;;3.27;1.53;;;13.40;99.90;;;;;;4175427;28;20211;-76
2023/08/08 06:27:14;;;;;;;3.60;1.93;;;13.40;99.90;;;;;;4181097;28;20262;-76
2023/08/08 06:29:15;;;;;;;4.33;2.30;;;13.50;99.90;;;;;;4174743;28;20215;-76
2023/08/08 06:31:17;;;;;;;9.73;2.93;;;13.50;99.90;;;;;;4177377;28;20240;-75
2023/08/08 06:33:18;;;;;;;3.30;1.97;;;13.50;99.90;;;;;;4180053;28;20210;-76
2023/08/08 06:35:22;;;;;;;3.97;1.90;;;13.60;99.90;;;;;;4178155;28;20210;-76
2023/08/08 06:37:23;;;;;;;4.17;1.93;;;13.60;99.90;;;;;;4173570;28;20267;-76
2023/08/08 06:39:25;;;;;;;3.03;2.00;;;13.70;99.90;;;;;;4178500;28;20314;-76
2023/08/08 06:41:27;;;;;;;3.97;2.30;;;13.70;99.90;;;;;;4175963;28;20727;-76
2023/08/08 06:43:29;;;;;;;4.37;1.80;;;13.80;99.90;;;;;;4174415;28;20223;-76
2023/08/08 06:45:31;;;;;;;4.07;1.90;;;13.80;99.90;;;;;;4179681;28;20306;-75
2023/08/08 06:47:33;;;;;;;5.47;2.67;;;13.90;99.90;;;;;;4172299;28;20273;-77
2023/08/08 06:49:35;;;;;;;2.67;1.70;;;13.90;99.90;;;;;;4182497;28;20217;-77
2023/08/08 06:51:39;;;;;;;3.00;1.53;;;13.90;99.90;;;;;;4177297;28;20293;-76
2023/08/08 06:53:41;;;;;;;2.70;1.50;;;14.00;99.90;;;;;;4176013;28;20214;-76
2023/08/08 06:55:43;;;;;;;1.83;1.40;;;14.10;99.90;;;;;;4187000;28;20214;-76
2023/08/08 06:57:44;;;;;;;1.80;1.40;;;14.10;99.90;;;;;;4178274;28;20264;-76
2023/08/08 06:59:50;;;;;;;3.10;1.57;;;14.20;99.90;;;;;;4173447;28;20230;-75
2023/08/08 07:01:52;;;;;;;2.07;1.50;;;14.30;99.90;;;;;;4175647;28;20658;-75
2023/08/08 07:03:54;;;;;;;2.97;1.60;;;14.30;99.90;;;;;;4175996;28;20272;-75
2023/08/08 07:05:55;;;;;;;4.90;1.50;;;14.40;99.90;;;;;;4172287;28;20718;-76
2023/08/08 07:07:59;;;;;;;3.37;1.50;;;14.50;99.90;;;;;;4182056;28;20210;-76
2023/08/08 07:10:01;;;;;;;5.03;1.73;;;14.50;99.90;;;;;;4178577;28;20302;-76
2023/08/08 07:12:03;;;;;;;1.50;1.40;;;14.60;99.90;;;;;;4180020;28;20206;-76
2023/08/08 07:14:05;;;;;;;3.77;1.50;;;14.70;99.90;;;;;;4178331;28;20208;-76
2023/08/08 07:16:07;;;;;;;2.13;1.30;;;14.70;99.90;;;;;;4173585;28;20746;-76
2023/08/08 07:18:09;;;;;;;2.60;1.50;;;14.70;99.90;;;;;;4174672;28;20325;-75
2023/08/08 07:20:13;;;;;;;2.43;1.40;;;14.70;99.90;;;;;;4178322;28;20294;-76
2023/08/08 07:22:15;;;;;;;2.27;1.50;;;14.70;99.90;;;;;;4173351;28;20355;-76
2023/08/08 07:24:20;;;;;;;2.70;1.50;;;14.70;99.90;;;;;;4174200;28;20213;-76
2023/08/08 07:26:22;;;;;;;2.93;1.73;;;14.70;99.90;;;;;;4178663;28;20233;-76
2023/08/08 07:28:24;;;;;;;2.83;1.77;;;14.60;99.90;;;;;;4174986;28;20223;-75
2023/08/08 07:30:26;;;;;;;2.80;1.30;;;14.60;99.90;;;;;;4180884;28;20584;-76
2023/08/08 07:32:34;;;;;;;2.50;1.60;;;14.60;99.90;;;;;;4175717;28;20269;-77
2023/08/08 07:34:36;;;;;;;2.90;1.50;;;14.60;99.90;;;;;;4176423;28;20299;-76
2023/08/08 07:36:38;;;;;;;3.83;1.40;;;14.60;99.90;;;;;;4177518;28;20846;-77
2023/08/08 07:38:40;;;;;;;3.07;1.40;;;14.60;99.90;;;;;;4177808;28;20243;-76
2023/08/08 07:40:43;;;;;;;3.40;1.67;;;14.50;99.90;;;;;;4177744;28;20641;-76
2023/08/08 07:42:45;;;;;;;3.03;1.70;;;14.50;99.90;;;;;;4179355;28;20225;-76
2023/08/08 07:44:47;;;;;;;3.67;1.50;;;14.50;99.90;;;;;;4175813;28;20294;-76
2023/08/08 07:46:49;;;;;;;3.53;1.87;;;14.50;99.90;;;;;;4177639;28;20229;-75
2023/08/08 07:48:50;;;;;;;4.17;1.60;;;14.50;99.90;;;;;;4174890;28;20771;-76
2023/08/08 07:50:52;;;;;;;1.83;1.40;;;14.40;99.90;;;;;;4176699;28;20211;-76
2023/08/08 07:52:56;;;;;;;4.20;1.70;;;14.40;99.90;;;;;;4176748;28;20267;-76
2023/08/08 07:54:58;;;;;;;4.23;1.53;;;14.30;99.90;;;;;;4174151;28;20214;-76
2023/08/08 07:57:01;;;;;;;4.27;1.70;;;14.30;99.90;;;;;;4176454;28;20324;-75
2023/08/08 07:59:03;;;;;;;3.67;1.77;;;14.20;99.90;;;;;;4180956;28;20311;-76
2023/08/08 08:01:05;;;;;;;6.50;1.60;;;14.30;99.90;;;;;;4173403;28;20209;-76
2023/08/08 08:03:06;;;;;;;3.47;1.60;;;14.30;99.90;;;;;;4176063;28;20307;-76
2023/08/08 08:05:09;;;;;;;3.17;1.67;;;14.40;99.90;;;;;;4179530;28;20557;-76
2023/08/08 08:07:10;;;;;;;4.60;1.70;;;14.40;99.90;;;;;;4175099;28;20704;-76
2023/08/08 08:09:12;;;;;;;4.60;1.77;;;14.40;99.90;;;;;;4179505;28;20212;-75
2023/08/08 08:11:16;;;;;;;3.07;1.53;;;14.50;99.90;;;;;;4175030;28;20279;-76
2023/08/08 08:13:19;;;;;;;3.13;1.60;;;14.50;99.90;;;;;;4176566;28;20614;-75
2023/08/08 08:15:21;;;;;;;4.93;1.60;;;14.60;99.90;;;;;;4183057;28;20241;-76
2023/08/08 08:17:23;;;;;;;2.70;1.70;;;14.60;99.90;;;;;;4174346;28;20229;-76
2023/08/08 08:19:25;;;;;;;2.97;1.63;;;14.60;99.90;;;;;;4174449;28;20803;-75
2023/08/08 08:21:29;;;;;;;3.13;1.50;;;14.60;99.90;;;;;;4181163;28;20353;-75
2023/08/08 08:23:32;;;;;;;5.43;1.93;;;14.60;99.90;;;;;;4175443;28;20217;-76
2023/08/08 08:25:34;;;;;;;4.33;2.10;;;14.60;99.90;;;;;;4179214;28;20668;-75
2023/08/08 08:27:36;;;;;;;2.87;2.00;;;14.60;99.90;;;;;;4182754;28;20232;-74
2023/08/08 08:29:40;;;;;;;3.03;1.60;;;14.60;99.90;;;;;;4179541;28;20253;-75
2023/08/08 08:31:41;;;;;;;3.00;1.50;;;14.80;99.90;;;;;;4178950;28;20593;-74
2023/08/08 08:33:44;;;;;;;6.33;1.80;;;14.60;99.90;;;;;;4184831;28;20298;-74
2023/08/08 08:35:46;;;;;;;4.37;1.70;;;14.60;99.90;;;;;;4173754;28;20210;-74
2023/08/08 08:37:48;;;;;;;2.77;1.50;;;14.60;99.90;;;;;;4176550;28;20693;-73
2023/08/08 08:39:50;;;;;;;6.03;1.67;;;14.60;99.90;;;;;;4180656;28;20608;-73
2023/08/08 08:42:01;;;;;;;1.97;1.47;;;14.60;99.90;;;;;;4182091;28;20213;-73
2023/08/08 08:44:03;;;;;;;3.53;1.57;;;14.70;99.90;;;;;;4172327;28;21012;-74
2023/08/08 08:46:09;;;;;;;3.07;1.77;;;14.70;99.90;;;;;;4175819;28;20264;-74
2023/08/08 08:48:11;;;;;;;3.57;1.60;;;14.60;99.90;;;;;;4177441;28;20288;-74
2023/08/08 08:50:14;;;;;;;2.80;1.67;;;14.70;99.90;;;;;;4175979;28;20220;-74
2023/08/08 08:52:16;;;;;;;4.63;1.60;;;14.60;99.90;;;;;;4171088;28;20386;-74
2023/08/08 08:54:19;;;;;;;4.60;1.70;;;14.60;99.90;;;;;;4177737;28;20238;-74
2023/08/08 08:56:22;;;;;;;2.67;1.60;;;14.50;99.90;;;;;;4181335;28;20702;-74
2023/08/08 08:58:26;;;;;;;5.23;1.60;;;14.40;99.90;;;;;;4165416;28;20232;-74
2023/08/08 09:00:28;;;;;;;2.90;1.63;;;14.30;99.90;;;;;;4175138;28;20257;-75
2023/08/08 09:02:31;;;;;;;3.17;1.67;;;14.30;99.90;;;;;;4188409;28;20298;-74
2023/08/08 09:04:34;;;;;;;3.70;1.80;;;14.30;99.90;;;;;;4173366;28;20825;-74
2023/08/08 09:06:39;;;;;;;5.10;2.00;;;14.30;99.90;;;;;;4172093;28;20240;-74
2023/08/08 09:08:41;;;;;;;4.83;2.07;;;14.30;99.90;;;;;;4172005;28;20214;-74
2023/08/08 09:10:42;;;;;;;4.17;2.00;;;14.30;99.90;;;;;;4172717;28;20216;-73
2023/08/08 09:12:44;;;;;;;3.37;1.67;;;14.30;99.90;;;;;;4179386;28;20373;-74
2023/08/08 09:14:45;;;;;;;4.07;1.70;;;14.30;99.90;;;;;;4182541;28;20215;-74
2023/08/08 09:16:48;;;;;;;3.30;2.07;;;14.30;99.90;;;;;;4175860;28;20223;-74
2023/08/08 09:18:55;;;;;;;4.17;2.20;;;14.40;99.90;;;;;;4177256;28;20327;-74
2023/08/08 09:20:59;;;;;;;2.30;1.40;;;14.40;99.90;;;;;;4176540;28;20232;-74
2023/08/08 09:23:01;;;;;;;3.90;1.97;;;14.40;99.90;;;;;;4168009;28;20292;-74
2023/08/08 09:25:03;;;;;;;3.67;1.77;;;14.40;99.90;;;;;;4177694;28;20277;-74
2023/08/08 09:27:05;;;;;;;2.77;1.83;;;14.50;99.90;;;;;;4171850;28;20241;-74
2023/08/08 09:29:08;;;;;;;2.83;1.77;;;14.50;99.90;;;;;;4172630;28;20218;-74
2023/08/08 09:31:10;;;;;;;2.80;1.87;;;14.50;99.90;;;;;;4173448;28;20209;-74
2023/08/08 09:33:13;;;;;;;6.07;1.80;;;14.60;99.90;;;;;;4180623;28;20247;-74
2023/08/08 09:35:16;;;;;;;2.77;1.60;;;14.70;99.90;;;;;;4172516;28;20301;-75
2023/08/08 09:37:18;;;;;;;4.43;1.80;;;14.80;99.90;;;;;;4169118;28;20241;-74
2023/08/08 09:39:21;;;;;;;5.03;1.97;;;14.90;99.90;;;;;;4172041;28;20259;-74
2023/08/08 09:41:23;;;;;;;4.63;2.07;;;15.00;99.90;;;;;;4175673;28;20590;-74
2023/08/08 09:43:25;;;;;;;3.43;1.70;;;15.10;99.90;;;;;;4175374;28;20233;-74
2023/08/08 09:45:27;;;;;;;4.90;2.10;;;15.10;99.90;;;;;;4173749;28;20268;-74
2023/08/08 09:47:31;;;;;;;2.77;1.73;;;15.20;99.90;;;;;;4172181;28;20230;-74
2023/08/08 09:49:36;;;;;;;3.93;1.97;;;15.40;99.90;;;;;;4169981;28;20211;-74
2023/08/08 09:51:43;;;;;;;4.53;1.80;;;15.60;99.90;;;;;;4173855;28;20261;-73
2023/08/08 09:53:49;;;;;;;8.90;3.27;;;15.80;99.90;;;;;;4183320;28;20275;-74
2023/08/08 09:55:51;;;;;;;4.73;1.67;;;16.00;99.90;;;;;;4169258;28;20258;-74
2023/08/08 09:57:57;;;;;;;3.03;1.37;;;16.20;99.90;;;;;;4180141;28;20669;-74
2023/08/08 09:59:59;;;;;;;6.23;1.60;;;16.30;99.90;;;;;;4174722;28;20234;-75
2023/08/08 10:02:02;;;;;;;3.00;1.33;;;16.40;99.90;;;;;;4174881;28;20707;-74
2023/08/08 10:04:04;;;;;;;3.80;2.00;;;16.50;99.90;;;;;;4173871;28;20210;-75
2023/08/08 10:06:06;;;;;;;4.23;1.60;;;16.60;99.90;;;;;;4175154;28;20242;-75
2023/08/08 10:08:10;;;;;;;4.23;1.50;;;16.80;99.90;;;;;;4171991;28;20275;-75
2023/08/08 10:10:14;;;;;;;4.13;1.50;;;16.80;99.90;;;;;;4171689;28;20214;-75
2023/08/08 10:12:17;;;;;;;3.20;1.40;;;16.90;99.90;;;;;;4176546;28;20304;-75
2023/08/08 10:14:19;;;;;;;1.97;1.20;;;17.00;99.90;;;;;;4174208;28;20883;-75
2023/08/08 10:16:23;;;;;;;3.07;1.53;;;17.10;99.90;;;;;;4172357;28;20585;-75
2023/08/08 10:18:27;;;;;;;5.03;1.50;;;17.30;99.90;;;;;;4177139;28;20245;-75
2023/08/08 10:20:33;;;;;;;3.23;1.60;;;17.40;99.90;;;;;;4178225;28;20323;-75
2023/08/08 10:22:36;;;;;;;2.47;1.50;;;17.40;99.90;;;;;;4176534;28;20227;-75
2023/08/08 10:24:39;;;;;;;3.30;1.40;;;17.50;99.90;;;;;;4175756;28;20233;-75
2023/08/08 10:26:59;;;;;;;2.93;1.13;;;17.40;99.90;;;;;;4173739;28;20324;-75
2023/08/08 10:29:03;;;;;;;3.30;1.50;;;17.30;99.90;;;;;;4175983;28;20216;-75
2023/08/08 10:31:08;;;;;;;2.93;1.50;;;17.20;99.90;;;;;;4179136;28;20215;-73
2023/08/08 10:33:17;;;;;;;2.83;1.67;;;17.10;99.90;;;;;;4175608;28;20223;-75
2023/08/08 10:35:19;;;;;;;3.00;1.27;;;17.10;99.90;;;;;;4179579;28;20208;-74
2023/08/08 10:37:23;;;;;;;2.97;1.67;;;17.10;99.90;;;;;;4178101;28;20272;-75
2023/08/08 10:39:26;;;;;;;4.13;1.40;;;17.00;99.90;;;;;;4176717;28;20744;-74